Time;durP1;ratioP1;P1;durP2;ratioP2;P2;SDS_P1;SDS_P2;PMS_P1;PMS_P2;Temp;Humidity;BMP_temperature;BMP_pressure;BME280_temperature;BME280_humidity;BME280_pressure;Samples;Min_cycle;Max_cycle;Signal;HPM_P1;HPM_P2
2022/10/07 00:00:11;;;;;;;7.93;2.78;;;9.90;99.90;;;;;;5011874;28;20030;-47
2022/10/07 00:02:37;;;;;;;14.45;3.42;;;9.80;99.90;;;;;;5011642;28;20395;-46
2022/10/07 00:05:02;;;;;;;14.00;3.10;;;9.60;99.90;;;;;;5011932;28;20022;-48
2022/10/07 00:07:28;;;;;;;5.60;2.75;;;9.60;99.90;;;;;;5012101;28;20164;-47
2022/10/07 00:09:53;;;;;;;8.27;3.10;;;9.60;99.90;;;;;;5011923;28;20037;-48
2022/10/07 00:12:19;;;;;;;11.02;3.75;;;9.60;99.90;;;;;;5011705;28;20026;-47
2022/10/07 00:14:45;;;;;;;5.78;3.10;;;9.60;99.90;;;;;;5013255;28;20559;-45
2022/10/07 00:17:10;;;;;;;6.18;2.78;;;9.60;99.90;;;;;;5012929;28;20026;-48
2022/10/07 00:19:36;;;;;;;16.05;3.45;;;9.60;99.90;;;;;;5011617;28;20101;-47
2022/10/07 00:22:01;;;;;;;7.65;3.17;;;9.60;99.90;;;;;;5011500;28;20018;-47
2022/10/07 00:24:28;;;;;;;9.05;3.08;;;9.50;99.90;;;;;;5011647;28;20409;-48
2022/10/07 00:26:53;;;;;;;9.77;3.88;;;9.50;99.90;;;;;;5011689;28;20383;-45
2022/10/07 00:29:19;;;;;;;12.60;3.88;;;9.50;99.90;;;;;;5011350;28;20087;-46
2022/10/07 00:31:44;;;;;;;11.70;3.55;;;9.50;99.90;;;;;;5011570;28;20080;-45
2022/10/07 00:34:11;;;;;;;12.30;3.08;;;9.50;99.90;;;;;;5011507;28;20018;-50
2022/10/07 00:36:37;;;;;;;7.50;3.10;;;9.50;99.90;;;;;;5011603;28;20093;-46
2022/10/07 00:39:07;;;;;;;10.15;3.63;;;9.40;99.90;;;;;;5011603;28;20022;-47
2022/10/07 00:41:36;;;;;;;7.85;3.53;;;9.40;99.90;;;;;;5011514;28;20022;-46
2022/10/07 00:44:34;;;;;;;12.18;3.80;;;9.40;99.90;;;;;;5009869;28;20117;-46
2022/10/07 00:47:22;;;;;;;6.20;3.05;;;9.30;99.90;;;;;;5011490;28;20450;-46
2022/10/07 00:50:06;;;;;;;6.28;3.22;;;9.20;99.90;;;;;;5012545;28;20091;-48
2022/10/07 00:52:36;;;;;;;6.95;3.30;;;9.10;99.90;;;;;;5015031;28;20034;-48
2022/10/07 00:55:06;;;;;;;11.65;3.55;;;9.00;99.90;;;;;;5015392;28;20037;-46
2022/10/07 00:57:33;;;;;;;15.77;3.63;;;9.00;99.90;;;;;;5015432;28;20057;-46
2022/10/07 00:59:59;;;;;;;4.70;3.38;;;8.80;99.90;;;;;;5015369;28;20022;-47
2022/10/07 01:02:27;;;;;;;14.82;4.25;;;8.80;99.90;;;;;;5015139;28;20109;-46
2022/10/07 01:04:57;;;;;;;5.25;3.17;;;8.80;99.90;;;;;;5015410;28;20038;-47
2022/10/07 01:07:23;;;;;;;6.45;3.15;;;8.80;99.90;;;;;;5015162;28;20076;-45
2022/10/07 01:09:52;;;;;;;6.75;3.45;;;8.80;99.90;;;;;;5013766;28;20058;-49
2022/10/07 01:12:38;;;;;;;4.45;3.15;;;8.80;99.90;;;;;;5014805;28;20026;-49
2022/10/07 01:15:37;;;;;;;10.82;3.67;;;8.80;99.90;;;;;;5015150;28;20120;-45
2022/10/07 01:18:09;;;;;;;15.30;3.30;;;8.90;99.90;;;;;;5007578;28;20026;-46
2022/10/07 01:20:45;;;;;;;10.07;2.92;;;8.80;99.90;;;;;;5015299;28;20026;-46
2022/10/07 01:23:30;;;;;;;12.95;3.33;;;8.80;99.90;;;;;;5015449;28;20018;-50
2022/10/07 01:26:21;;;;;;;10.50;4.07;;;8.90;99.90;;;;;;5014846;28;20034;-45
2022/10/07 01:29:12;;;;;;;9.30;3.25;;;8.90;99.90;;;;;;5014827;28;20026;-46
2022/10/07 01:31:43;;;;;;;6.90;3.00;;;8.90;99.90;;;;;;5014790;28;20088;-45
2022/10/07 01:34:12;;;;;;;8.63;3.17;;;8.90;99.90;;;;;;5014430;28;20116;-46
2022/10/07 01:36:40;;;;;;;7.13;3.08;;;8.90;99.90;;;;;;5014561;28;20030;-47
2022/10/07 01:39:14;;;;;;;10.82;3.50;;;8.90;99.90;;;;;;5014628;28;20068;-47
2022/10/07 01:41:40;;;;;;;10.38;4.57;;;8.80;99.90;;;;;;5014594;28;20520;-49
2022/10/07 01:44:08;;;;;;;20.42;4.20;;;8.80;99.90;;;;;;5014249;28;20038;-49
2022/10/07 01:46:36;;;;;;;9.77;3.60;;;8.80;99.90;;;;;;5013179;28;20026;-46
2022/10/07 01:49:04;;;;;;;9.02;3.58;;;8.80;99.90;;;;;;5013156;28;20076;-48
2022/10/07 01:51:35;;;;;;;10.95;3.35;;;8.80;99.90;;;;;;5014335;28;20052;-50
2022/10/07 01:54:10;;;;;;;6.13;3.05;;;8.90;99.90;;;;;;5014230;28;20393;-47
2022/10/07 01:56:54;;;;;;;16.75;4.05;;;8.90;99.90;;;;;;5014202;28;20030;-47
2022/10/07 01:59:37;;;;;;;8.35;3.40;;;8.90;99.90;;;;;;5012861;28;20422;-48
2022/10/07 02:02:18;;;;;;;18.83;4.45;;;8.90;99.90;;;;;;5013195;28;20374;-48
2022/10/07 02:04:55;;;;;;;6.85;3.13;;;8.90;99.90;;;;;;5014056;28;20076;-47
2022/10/07 02:07:29;;;;;;;11.43;4.18;;;9.00;99.90;;;;;;5027089;22;20039;-52
2022/10/07 02:10:03;;;;;;;10.10;3.42;;;9.00;99.90;;;;;;4994277;28;20175;-51
2022/10/07 02:12:49;;;;;;;6.63;3.22;;;9.00;99.90;;;;;;5009040;28;20207;-53
2022/10/07 02:15:20;;;;;;;8.95;3.38;;;9.00;99.90;;;;;;4994247;28;20031;-54
2022/10/07 02:17:53;;;;;;;11.18;3.50;;;8.90;99.90;;;;;;4994328;28;20025;-50
2022/10/07 02:20:24;;;;;;;13.02;3.92;;;8.80;99.90;;;;;;4994180;28;20015;-52
2022/10/07 02:22:52;;;;;;;11.25;2.88;;;8.80;99.90;;;;;;4993819;28;20034;-53
2022/10/07 02:25:19;;;;;;;7.75;3.25;;;8.70;99.90;;;;;;4993955;28;20058;-53
2022/10/07 02:27:47;;;;;;;10.30;3.55;;;8.60;99.90;;;;;;4993588;28;20018;-51
2022/10/07 02:30:15;;;;;;;8.80;3.13;;;8.50;99.90;;;;;;4993946;28;20117;-49
2022/10/07 02:32:46;;;;;;;10.00;3.80;;;8.40;99.90;;;;;;4993640;28;20046;-49
2022/10/07 02:35:22;;;;;;;19.63;3.92;;;8.30;99.90;;;;;;4993902;28;20018;-52
2022/10/07 02:37:49;;;;;;;;;;;8.30;99.90;;;;;;4994113;28;20525;-50
2022/10/07 02:40:15;;;;;;;9.35;3.50;;;8.30;99.90;;;;;;4993998;28;19906;-52
2022/10/07 02:42:54;;;;;;;8.95;3.47;;;8.20;99.90;;;;;;4993619;28;20049;-55
2022/10/07 02:45:46;;;;;;;7.05;3.22;;;8.20;99.90;;;;;;4994065;28;20398;-51
2022/10/07 02:48:19;;;;;;;12.07;4.47;;;8.10;99.90;;;;;;4993558;28;20076;-53
2022/10/07 02:50:48;;;;;;;11.27;3.60;;;8.10;99.90;;;;;;4993740;28;20030;-57
2022/10/07 02:53:16;;;;;;;8.10;3.50;;;8.20;99.90;;;;;;4992093;28;20081;-53
2022/10/07 02:55:42;;;;;;;14.88;3.78;;;8.20;99.90;;;;;;4993654;28;20062;-51
2022/10/07 02:58:11;;;;;;;6.93;3.83;;;8.20;99.90;;;;;;4993245;28;20023;-54
2022/10/07 03:00:41;;;;;;;7.47;4.35;;;8.20;99.90;;;;;;4994045;28;20462;-53
2022/10/07 03:03:07;;;;;;;6.88;3.72;;;8.20;99.90;;;;;;4991850;28;20022;-50
2022/10/07 03:05:34;;;;;;;4.80;3.33;;;8.10;99.90;;;;;;4993498;28;20033;-54
2022/10/07 03:08:06;;;;;;;7.70;3.72;;;8.20;99.90;;;;;;4991721;28;20173;-51
2022/10/07 03:10:32;;;;;;;13.85;3.35;;;8.20;99.90;;;;;;4993147;28;20113;-51
2022/10/07 03:12:58;;;;;;;10.23;4.22;;;8.20;99.90;;;;;;4990794;28;20113;-54
2022/10/07 03:15:24;;;;;;;9.82;4.15;;;8.30;99.90;;;;;;4992865;28;20160;-49
2022/10/07 03:17:50;;;;;;;5.70;3.35;;;8.30;99.90;;;;;;4991584;28;20022;-57
2022/10/07 03:20:16;;;;;;;13.13;3.78;;;8.40;99.90;;;;;;4992986;28;20110;-55
2022/10/07 03:22:42;;;;;;;7.45;3.72;;;8.40;99.90;;;;;;4992649;28;20097;-53
2022/10/07 03:25:09;;;;;;;8.05;3.88;;;8.40;99.90;;;;;;4992945;28;20022;-55
2022/10/07 03:27:35;;;;;;;6.80;3.65;;;8.50;99.90;;;;;;4992466;28;20057;-55
2022/10/07 03:30:00;;;;;;;10.40;3.10;;;8.40;99.90;;;;;;4992776;28;20486;-55
2022/10/07 03:32:26;;;;;;;8.05;3.60;;;8.40;99.90;;;;;;4991194;28;20298;-48
2022/10/07 03:34:53;;;;;;;12.77;4.80;;;8.40;99.90;;;;;;4992675;28;20053;-51
2022/10/07 03:37:19;;;;;;;9.93;3.95;;;8.40;99.90;;;;;;4992631;28;20029;-50
2022/10/07 03:39:45;;;;;;;11.52;4.20;;;8.30;99.90;;;;;;4992625;28;20018;-53
2022/10/07 03:42:10;;;;;;;11.85;3.92;;;8.40;99.90;;;;;;4992317;28;20501;-52
2022/10/07 03:44:37;;;;;;;13.23;4.13;;;8.40;99.90;;;;;;4992535;28;20065;-52
2022/10/07 03:47:03;;;;;;;14.48;4.20;;;8.40;99.90;;;;;;4992695;28;20029;-55
2022/10/07 03:49:28;;;;;;;8.77;3.58;;;8.40;99.90;;;;;;4992489;28;20026;-55
2022/10/07 03:51:54;;;;;;;6.78;3.40;;;8.30;99.90;;;;;;4991012;28;20065;-53
2022/10/07 03:54:20;;;;;;;7.05;3.45;;;8.20;99.90;;;;;;4992121;28;20030;-52
2022/10/07 03:56:45;;;;;;;9.15;3.58;;;8.20;99.90;;;;;;4992257;28;20037;-55
2022/10/07 03:59:11;;;;;;;8.48;4.10;;;8.20;99.90;;;;;;4992049;28;20022;-54
2022/10/07 04:01:38;;;;;;;7.00;3.30;;;8.20;99.90;;;;;;4992221;28;20133;-52
2022/10/07 04:04:06;;;;;;;7.53;3.55;;;8.20;99.90;;;;;;4991916;28;20026;-50
2022/10/07 04:06:32;;;;;;;9.23;3.95;;;8.20;99.90;;;;;;4990899;28;20018;-54
2022/10/07 04:08:57;;;;;;;14.02;4.05;;;8.00;99.90;;;;;;4992016;28;20014;-55
2022/10/07 04:11:23;;;;;;;12.30;4.70;;;8.00;99.90;;;;;;4992120;28;20109;-54
2022/10/07 04:13:49;;;;;;;10.70;4.10;;;7.90;99.90;;;;;;4990435;28;20366;-54
2022/10/07 04:16:15;;;;;;;10.95;3.72;;;7.90;99.90;;;;;;4992129;28;20030;-52
2022/10/07 04:18:41;;;;;;;10.18;3.95;;;7.90;99.90;;;;;;4991832;28;20105;-55
2022/10/07 04:21:07;;;;;;;8.68;3.67;;;7.90;99.90;;;;;;4992187;28;20405;-52
2022/10/07 04:23:33;;;;;;;15.50;3.75;;;7.90;99.90;;;;;;4991691;28;20031;-52
2022/10/07 04:25:59;;;;;;;6.35;3.90;;;8.00;99.90;;;;;;4991844;28;20038;-55
2022/10/07 04:28:26;;;;;;;10.43;3.90;;;8.00;99.90;;;;;;4991665;28;20100;-52
2022/10/07 04:30:52;;;;;;;7.18;3.65;;;8.00;99.90;;;;;;4992247;28;20068;-51
2022/10/07 04:33:20;;;;;;;7.75;3.78;;;8.00;99.90;;;;;;4992594;28;20109;-50
2022/10/07 04:35:47;;;;;;;9.18;3.45;;;8.00;99.90;;;;;;4991868;28;20080;-55
2022/10/07 04:38:14;;;;;;;11.13;4.45;;;8.10;99.90;;;;;;4991783;28;20030;-51
2022/10/07 04:40:42;;;;;;;10.60;4.80;;;8.10;99.90;;;;;;4991684;28;20022;-56
2022/10/07 04:43:19;;;;;;;13.38;4.28;;;8.10;99.90;;;;;;4991517;28;20018;-52
2022/10/07 04:45:46;;;;;;;9.13;3.15;;;8.10;99.90;;;;;;4991823;28;20033;-55
2022/10/07 04:48:12;;;;;;;12.70;4.45;;;8.10;99.90;;;;;;4991488;28;20026;-52
2022/10/07 04:50:38;;;;;;;15.85;3.75;;;8.10;99.90;;;;;;4991818;28;20375;-56
2022/10/07 04:53:08;;;;;;;7.70;4.15;;;8.10;99.90;;;;;;4991266;28;20027;-54
2022/10/07 04:55:38;;;;;;;8.13;3.72;;;8.10;99.90;;;;;;4991586;28;20512;-56
2022/10/07 04:58:04;;;;;;;11.52;3.88;;;8.10;99.90;;;;;;4991617;28;20023;-52
2022/10/07 05:00:30;;;;;;;8.80;3.60;;;8.00;99.90;;;;;;4991706;28;20160;-56
2022/10/07 05:02:56;;;;;;;13.88;4.07;;;7.90;99.90;;;;;;4991223;28;20097;-51
2022/10/07 05:05:22;;;;;;;11.27;4.63;;;7.90;99.90;;;;;;4991575;28;20033;-52
2022/10/07 05:07:51;;;;;;;9.18;3.63;;;7.90;99.90;;;;;;4991643;28;20038;-55
2022/10/07 05:10:17;;;;;;;13.32;4.55;;;8.00;99.90;;;;;;4991888;28;20053;-53
2022/10/07 05:12:43;;;;;;;16.40;4.60;;;8.00;99.90;;;;;;4990257;28;20033;-50
2022/10/07 05:15:09;;;;;;;15.27;3.90;;;8.00;99.90;;;;;;4991418;28;20034;-53
2022/10/07 05:17:34;;;;;;;12.30;4.00;;;8.00;99.90;;;;;;4991423;28;20023;-48
2022/10/07 05:20:01;;;;;;;13.50;4.38;;;8.00;99.90;;;;;;4991460;28;20109;-55
2022/10/07 05:22:26;;;;;;;10.68;4.53;;;8.00;99.90;;;;;;4991227;28;20021;-55
2022/10/07 05:24:53;;;;;;;10.82;3.80;;;8.00;99.90;;;;;;4991405;28;20030;-50
2022/10/07 05:27:18;;;;;;;23.77;4.30;;;8.10;99.90;;;;;;4991271;28;20026;-53
2022/10/07 05:29:44;;;;;;;8.38;3.50;;;8.00;99.90;;;;;;4989338;28;20035;-54
2022/10/07 05:32:09;;;;;;;7.38;3.90;;;8.10;99.90;;;;;;4990999;28;20410;-51
2022/10/07 05:34:35;;;;;;;12.15;3.78;;;8.10;99.90;;;;;;4991192;28;20026;-50
2022/10/07 05:37:00;;;;;;;10.25;5.05;;;8.00;99.90;;;;;;4992605;28;20041;-51
2022/10/07 05:39:26;;;;;;;4.40;3.60;;;8.00;99.90;;;;;;4995052;28;20030;-53
2022/10/07 05:41:51;;;;;;;12.30;3.78;;;8.10;99.90;;;;;;4994796;28;20483;-52
2022/10/07 05:44:17;;;;;;;14.02;4.10;;;8.10;99.90;;;;;;4994746;28;20019;-54
2022/10/07 05:46:42;;;;;;;14.38;4.03;;;8.10;99.90;;;;;;4994685;28;20030;-50
2022/10/07 05:49:08;;;;;;;17.38;4.60;;;8.20;99.90;;;;;;4994723;28;20022;-54
2022/10/07 05:51:33;;;;;;;14.35;4.40;;;8.20;99.90;;;;;;4994713;28;20060;-57
2022/10/07 05:53:59;;;;;;;9.45;4.30;;;8.10;99.90;;;;;;4994596;28;20027;-53
2022/10/07 05:56:25;;;;;;;16.13;5.25;;;8.20;99.90;;;;;;4993419;28;20101;-49
2022/10/07 05:58:51;;;;;;;9.32;4.53;;;8.20;99.90;;;;;;4994569;28;20029;-52
2022/10/07 06:01:21;;;;;;;12.55;4.70;;;8.30;99.90;;;;;;4994896;28;20022;-53
2022/10/07 06:03:52;;;;;;;13.13;4.25;;;8.40;99.90;;;;;;4994162;28;20026;-49
2022/10/07 06:06:18;;;;;;;7.80;3.83;;;8.40;99.90;;;;;;4994243;28;20049;-50
2022/10/07 06:08:46;;;;;;;7.63;4.03;;;8.50;99.90;;;;;;4993258;28;20060;-55
2022/10/07 06:13:58;;;;;;;9.88;3.90;;;8.60;99.90;;;;;;4994128;28;20028;-53
2022/10/07 06:16:24;;;;;;;13.15;4.50;;;8.60;99.90;;;;;;4994101;28;20045;-51
2022/10/07 06:18:51;;;;;;;8.77;3.53;;;8.60;99.90;;;;;;4994168;28;20022;-51
2022/10/07 06:21:22;;;;;;;14.20;3.90;;;8.60;99.90;;;;;;4994122;28;20022;-52
2022/10/07 06:23:51;;;;;;;10.40;4.13;;;8.70;99.90;;;;;;4993764;28;20401;-51
2022/10/07 06:26:17;;;;;;;11.32;3.85;;;8.70;99.90;;;;;;4994206;28;20057;-50
2022/10/07 06:28:43;;;;;;;5.65;3.70;;;8.70;99.90;;;;;;4993553;28;20026;-51
2022/10/07 06:31:24;;;;;;;13.95;4.72;;;8.80;99.90;;;;;;4994369;28;20553;-55
2022/10/07 06:33:50;;;;;;;8.73;3.78;;;8.90;99.90;;;;;;4993538;28;20113;-56
2022/10/07 06:36:16;;;;;;;5.60;3.05;;;8.90;99.90;;;;;;4993638;28;20117;-54
2022/10/07 06:38:46;;;;;;;12.48;3.85;;;8.90;99.90;;;;;;4993864;28;20109;-56
2022/10/07 06:41:12;;;;;;;7.80;3.53;;;8.90;99.90;;;;;;4992417;28;20085;-50
2022/10/07 06:43:37;;;;;;;16.35;4.57;;;8.90;99.90;;;;;;4993464;28;20019;-50
2022/10/07 06:46:05;;;;;;;15.57;4.18;;;8.90;99.90;;;;;;4994098;28;20482;-52
2022/10/07 06:48:32;;;;;;;11.70;3.90;;;8.90;99.90;;;;;;4993162;28;20379;-49
2022/10/07 06:50:59;;;;;;;5.32;3.78;;;9.10;99.90;;;;;;4993360;28;20031;-46
2022/10/07 06:53:26;;;;;;;13.75;3.97;;;9.20;99.90;;;;;;4993191;28;20053;-50
2022/10/07 06:55:56;;;;;;;13.00;4.03;;;9.20;99.90;;;;;;4993420;28;20038;-53
2022/10/07 06:58:23;;;;;;;20.42;4.07;;;9.10;99.90;;;;;;4993272;28;20018;-47
2022/10/07 07:01:01;;;;;;;11.15;3.53;;;9.20;99.90;;;;;;4993301;28;20025;-54
2022/10/07 07:03:27;;;;;;;14.38;3.83;;;9.30;99.90;;;;;;4993419;28;20441;-55
2022/10/07 07:05:53;;;;;;;7.78;4.15;;;9.80;99.90;;;;;;4993538;28;20486;-55
2022/10/07 07:08:19;;;;;;;13.18;4.50;;;10.50;99.90;;;;;;4993458;28;20113;-55
2022/10/07 07:10:45;;;;;;;13.38;4.72;;;11.10;99.90;;;;;;4993305;28;20034;-53
2022/10/07 07:13:11;;;;;;;10.13;3.20;;;12.00;99.90;;;;;;4991733;28;20022;-55
2022/10/07 07:15:38;;;;;;;18.90;3.95;;;12.60;99.90;;;;;;4993223;28;20505;-53
2022/10/07 07:18:05;;;;;;;11.65;3.58;;;13.20;99.90;;;;;;4993146;28;20105;-53
2022/10/07 07:20:38;;;;;;;8.48;3.47;;;13.50;99.90;;;;;;4993139;28;20065;-54
2022/10/07 07:23:05;;;;;;;14.88;3.90;;;13.10;99.90;;;;;;4991551;28;20033;-55
2022/10/07 07:25:34;;;;;;;10.13;4.72;;;12.60;99.90;;;;;;4993099;28;20037;-55
2022/10/07 07:28:00;;;;;;;9.10;3.65;;;12.10;99.90;;;;;;4992740;28;20026;-53
2022/10/07 07:30:29;;;;;;;11.15;4.15;;;11.40;99.90;;;;;;4993039;28;20022;-53
2022/10/07 07:32:56;;;;;;;10.45;4.90;;;11.10;99.90;;;;;;4992450;28;20030;-53
2022/10/07 07:35:23;;;;;;;16.27;4.45;;;10.70;99.90;;;;;;4992746;28;20032;-55
2022/10/07 07:37:49;;;;;;;8.63;4.03;;;10.60;99.90;;;;;;4992712;28;20022;-50
2022/10/07 07:40:15;;;;;;;7.85;4.03;;;10.40;99.90;;;;;;4992451;28;20025;-52
2022/10/07 07:42:41;;;;;;;16.25;5.10;;;10.30;99.90;;;;;;4992651;28;20399;-50
2022/10/07 07:45:07;;;;;;;10.90;4.68;;;10.10;99.90;;;;;;4992645;28;20106;-51
2022/10/07 07:47:33;;;;;;;11.98;4.07;;;10.00;99.90;;;;;;4992566;28;20034;-54
2022/10/07 07:49:58;;;;;;;14.48;4.22;;;10.00;99.90;;;;;;4992467;28;20447;-50
2022/10/07 07:52:24;;;;;;;12.13;4.20;;;10.00;99.90;;;;;;4992015;28;20038;-53
2022/10/07 07:54:51;;;;;;;15.68;5.03;;;10.00;99.90;;;;;;4992430;28;20026;-55
2022/10/07 07:57:17;;;;;;;16.67;5.78;;;10.00;99.90;;;;;;4992352;28;20019;-53
2022/10/07 07:59:42;;;;;;;15.98;4.18;;;10.00;99.90;;;;;;4991721;28;20035;-55
2022/10/07 08:02:11;;;;;;;11.05;4.03;;;10.10;99.90;;;;;;4991918;28;20026;-53
2022/10/07 08:04:36;;;;;;;11.23;4.47;;;10.10;99.90;;;;;;4992294;28;20026;-54
2022/10/07 08:07:02;;;;;;;10.15;4.00;;;10.20;99.90;;;;;;5017001;23;20038;-45
2022/10/07 08:09:27;;;;;;;7.30;4.00;;;10.30;99.90;;;;;;5011758;28;20482;-45
2022/10/07 08:11:55;;;;;;;12.40;5.22;;;10.30;99.90;;;;;;5011754;28;20054;-45
2022/10/07 08:14:21;;;;;;;10.95;4.40;;;10.40;99.90;;;;;;5011880;28;20255;-45
2022/10/07 08:16:48;;;;;;;16.63;5.07;;;10.40;99.90;;;;;;5011745;28;20442;-48
2022/10/07 08:19:14;;;;;;;14.10;4.63;;;10.50;99.90;;;;;;5010424;28;20088;-45
2022/10/07 08:21:40;;;;;;;11.98;5.20;;;10.60;99.90;;;;;;5011723;28;20029;-49
2022/10/07 08:24:07;;;;;;;18.10;5.30;;;10.70;99.90;;;;;;5011596;28;20022;-48
2022/10/07 08:26:33;;;;;;;11.98;5.13;;;10.80;99.90;;;;;;5012063;28;20108;-45
2022/10/07 08:29:00;;;;;;;10.45;4.35;;;10.80;99.90;;;;;;5011032;28;20438;-48
2022/10/07 08:31:27;;;;;;;10.80;4.30;;;10.90;99.90;;;;;;5011534;28;20073;-46
2022/10/07 08:33:53;;;;;;;11.55;3.72;;;10.90;99.90;;;;;;5010061;28;20152;-48
2022/10/07 08:36:21;;;;;;;15.77;4.47;;;10.90;99.90;;;;;;5011613;28;20071;-46
2022/10/07 08:38:48;;;;;;;20.13;5.93;;;11.00;99.90;;;;;;5011701;28;20492;-47
2022/10/07 08:41:27;;;;;;;18.20;6.03;;;11.00;99.90;;;;;;5011395;28;20030;-45
2022/10/07 08:43:53;;;;;;;15.35;3.75;;;11.10;99.90;;;;;;5011508;28;20026;-48
2022/10/07 08:46:25;;;;;;;14.57;4.32;;;11.20;99.90;;;;;;5011513;28;20087;-47
2022/10/07 08:49:02;;;;;;;15.23;4.18;;;11.30;99.90;;;;;;5009831;28;20116;-45
2022/10/07 08:51:37;;;;;;;12.40;3.97;;;11.30;99.90;;;;;;5011614;28;20504;-46
2022/10/07 08:54:04;;;;;;;11.95;5.25;;;11.40;99.90;;;;;;5011520;28;20478;-45
2022/10/07 08:56:32;;;;;;;12.40;3.80;;;11.60;99.90;;;;;;5011943;28;20033;-47
2022/10/07 08:59:13;;;;;;;9.82;3.20;;;11.70;99.90;;;;;;5011559;28;20107;-47
2022/10/07 09:02:04;;;;;;;5.68;3.58;;;11.70;99.90;;;;;;5010085;28;20022;-48
2022/10/07 09:05:04;;;;;;;11.18;3.97;;;11.90;99.90;;;;;;5011714;28;20014;-47
2022/10/07 09:07:46;;;;;;;16.20;3.53;;;12.90;99.90;;;;;;5011331;28;20478;-45
2022/10/07 09:10:28;;;;;;;10.05;3.40;;;14.50;99.90;;;;;;5010334;28;20378;-48
2022/10/07 09:12:59;;;;;;;4.85;3.03;;;16.10;99.90;;;;;;5014979;28;20096;-49
2022/10/07 09:15:38;;;;;;;7.38;3.00;;;17.40;99.90;;;;;;5015336;28;20425;-48
2022/10/07 09:18:26;;;;;;;6.75;3.03;;;18.80;99.90;;;;;;5015308;28;20022;-45
2022/10/07 09:20:54;;;;;;;5.75;3.13;;;19.90;99.30;;;;;;5015315;28;20093;-50
2022/10/07 09:23:28;;;;;;;7.85;2.35;;;20.80;97.30;;;;;;5014627;28;20030;-51
2022/10/07 09:25:53;;;;;;;15.18;3.17;;;21.40;95.70;;;;;;5013877;28;20037;-46
2022/10/07 09:28:24;;;;;;;11.38;2.83;;;22.10;94.70;;;;;;5014255;28;20448;-47
2022/10/07 09:30:50;;;;;;;7.97;2.10;;;22.20;93.80;;;;;;5014938;28;20034;-47
2022/10/07 09:33:19;;;;;;;8.95;2.78;;;21.90;94.10;;;;;;5014619;28;20440;-48
2022/10/07 09:35:52;;;;;;;6.57;2.67;;;21.70;94.00;;;;;;5015027;28;20037;-47
2022/10/07 09:38:38;;;;;;;4.72;2.60;;;21.60;94.90;;;;;;5014698;28;20040;-47
2022/10/07 09:41:14;;;;;;;10.68;2.75;;;21.60;94.50;;;;;;5014723;28;20409;-46
2022/10/07 09:43:50;;;;;;;8.10;2.20;;;21.50;94.50;;;;;;5014575;28;20101;-48
2022/10/07 09:46:46;;;;;;;9.60;2.53;;;21.00;95.00;;;;;;5014703;28;20129;-47
2022/10/07 09:49:27;;;;;;;8.98;2.50;;;20.60;95.40;;;;;;5014487;28;20026;-44
2022/10/07 09:52:15;;;;;;;8.98;2.85;;;20.30;95.70;;;;;;5014520;28;20030;-49
2022/10/07 09:54:45;;;;;;;12.45;2.80;;;20.00;95.90;;;;;;5014971;28;20358;-49
2022/10/07 09:57:33;;;;;;;9.73;2.90;;;19.60;96.70;;;;;;5013159;28;20029;-48
2022/10/07 10:00:16;;;;;;;10.40;2.75;;;19.60;96.90;;;;;;5014185;28;20025;-45
2022/10/07 10:02:47;;;;;;;9.68;3.20;;;19.50;97.30;;;;;;5012735;28;20112;-46
2022/10/07 10:05:22;;;;;;;13.15;3.10;;;19.60;97.30;;;;;;5014165;28;20409;-48
2022/10/07 10:07:52;;;;;;;4.55;2.22;;;19.80;97.40;;;;;;5014156;28;20068;-47
2022/10/07 10:10:23;;;;;;;8.77;2.05;;;19.90;96.40;;;;;;5014210;28;20041;-46
2022/10/07 10:12:51;;;;;;;6.97;1.80;;;19.90;96.60;;;;;;5013808;28;20026;-45
2022/10/07 10:15:28;;;;;;;8.98;2.60;;;19.90;97.00;;;;;;5013865;28;20045;-47
2022/10/07 10:17:55;;;;;;;7.43;2.55;;;19.90;97.10;;;;;;5013888;28;20030;-46
2022/10/07 10:20:24;;;;;;;10.00;2.97;;;19.80;97.10;;;;;;5013888;28;20026;-47
2022/10/07 10:22:50;;;;;;;7.10;2.67;;;19.70;97.50;;;;;;5012993;28;20033;-48
2022/10/07 10:28:13;;;;;;;6.63;3.35;;;19.40;98.60;;;;;;5013581;28;20520;-49
2022/10/07 10:30:54;;;;;;;10.43;3.05;;;18.90;99.30;;;;;;5014116;28;20026;-45
2022/10/07 10:33:35;;;;;;;12.23;3.22;;;18.90;99.70;;;;;;5013712;28;20482;-45
2022/10/07 10:36:14;;;;;;;11.25;3.60;;;18.80;99.90;;;;;;5013556;28;20065;-48
2022/10/07 10:38:46;;;;;;;9.70;3.72;;;18.70;99.90;;;;;;5013357;28;20033;-47
2022/10/07 10:41:25;;;;;;;12.77;3.30;;;18.70;99.90;;;;;;5013743;28;20649;-48
2022/10/07 10:44:13;;;;;;;8.02;2.78;;;18.50;99.90;;;;;;5013265;28;20033;-45
2022/10/07 10:46:46;;;;;;;8.05;2.97;;;18.60;99.90;;;;;;5013382;28;20393;-47
2022/10/07 10:50:03;;;;;;;7.88;2.78;;;18.60;99.90;;;;;;5013271;28;20033;-48
2022/10/07 10:52:39;;;;;;;13.82;4.18;;;18.30;99.90;;;;;;4996097;28;20038;-46
2022/10/07 10:55:23;;;;;;;6.80;2.90;;;18.00;99.90;;;;;;5013333;28;20037;-46
2022/10/07 10:58:18;;;;;;;9.15;3.50;;;18.00;99.90;;;;;;5012896;28;20022;-46
2022/10/07 11:01:19;;;;;;;8.27;2.40;;;18.00;99.90;;;;;;5013450;28;20022;-46
2022/10/07 11:04:03;;;;;;;6.25;2.78;;;18.00;99.90;;;;;;4997234;28;20053;-47
2022/10/07 11:06:33;;;;;;;7.60;3.25;;;18.00;99.90;;;;;;5011734;28;20553;-46
2022/10/07 11:09:01;;;;;;;11.48;4.22;;;17.90;99.90;;;;;;5012742;28;20056;-47
2022/10/07 11:11:27;;;;;;;14.65;3.28;;;17.80;99.90;;;;;;5011630;28;20120;-49
2022/10/07 11:13:57;;;;;;;7.65;3.05;;;17.60;99.90;;;;;;5011211;28;20029;-49
2022/10/07 11:16:43;;;;;;;9.55;2.83;;;17.50;99.90;;;;;;5012981;28;20026;-46
2022/10/07 11:19:24;;;;;;;15.73;3.30;;;17.40;99.90;;;;;;5012651;28;20240;-45
2022/10/07 11:21:55;;;;;;;12.23;2.85;;;17.40;99.90;;;;;;5011674;28;20029;-45
2022/10/07 11:24:34;;;;;;;7.55;2.30;;;17.40;99.90;;;;;;5012239;28;20025;-47
2022/10/07 11:27:09;;;;;;;7.57;2.65;;;17.40;99.90;;;;;;5012988;28;20022;-46
2022/10/07 11:29:41;;;;;;;6.00;2.50;;;17.50;99.90;;;;;;5012123;28;20073;-48
2022/10/07 11:32:40;;;;;;;10.50;2.63;;;17.40;99.90;;;;;;5011006;28;20619;-46
2022/10/07 11:35:12;;;;;;;6.93;2.45;;;17.40;99.90;;;;;;5010937;28;20033;-45
2022/10/07 11:37:46;;;;;;;7.20;2.42;;;17.30;99.90;;;;;;5012366;28;20033;-47
2022/10/07 11:40:12;;;;;;;6.18;1.88;;;17.30;99.80;;;;;;5011510;28;20022;-48
2022/10/07 11:42:42;;;;;;;5.32;1.50;;;17.30;99.60;;;;;;5009263;28;20072;-46
2022/10/07 11:45:11;;;;;;;6.07;2.03;;;17.30;99.50;;;;;;5010209;28;20127;-48
2022/10/07 11:47:57;;;;;;;5.63;2.40;;;17.30;99.90;;;;;;5010571;28;20040;-47
2022/10/07 11:50:30;;;;;;;10.48;2.85;;;17.20;99.90;;;;;;5010913;28;20030;-48
2022/10/07 11:53:03;;;;;;;7.93;3.53;;;17.20;99.90;;;;;;5011862;28;20033;-48
2022/10/07 11:55:38;;;;;;;20.15;12.65;;;17.20;99.90;;;;;;5012370;28;20025;-47
2022/10/07 11:58:05;;;;;;;4.63;2.53;;;17.20;99.90;;;;;;5012338;28;20406;-50
2022/10/07 12:00:35;;;;;;;4.28;2.25;;;17.20;99.90;;;;;;5012492;28;20074;-52
2022/10/07 12:03:24;;;;;;;10.32;2.17;;;17.30;99.70;;;;;;5012428;28;20406;-46
2022/10/07 12:05:49;;;;;;;6.22;1.88;;;17.40;99.10;;;;;;5004270;28;20041;-45
2022/10/07 12:08:31;;;;;;;10.32;2.08;;;17.40;98.60;;;;;;5011941;28;20188;-48
2022/10/07 12:11:12;;;;;;;5.43;1.98;;;17.50;98.40;;;;;;5012210;28;20029;-45
2022/10/07 12:13:49;;;;;;;6.85;2.00;;;17.50;98.40;;;;;;5011848;28;20450;-46
2022/10/07 12:16:27;;;;;;;11.13;1.90;;;17.50;99.30;;;;;;5011955;28;20091;-49
2022/10/07 12:19:09;;;;;;;9.93;1.92;;;17.60;99.60;;;;;;5011751;28;20394;-52
2022/10/07 12:22:01;;;;;;;8.35;1.88;;;17.60;99.80;;;;;;5012021;28;20018;-46
2022/10/07 12:24:31;;;;;;;7.63;2.42;;;17.70;99.90;;;;;;5012014;28;20248;-47
2022/10/07 12:27:17;;;;;;;7.53;2.25;;;17.80;99.40;;;;;;5011915;28;20058;-45
2022/10/07 12:29:49;;;;;;;9.65;2.55;;;17.70;99.10;;;;;;5011178;28;20014;-47
2022/10/07 12:32:49;;;;;;;9.00;2.47;;;17.70;99.00;;;;;;5011639;28;20021;-49
2022/10/07 12:35:33;;;;;;;12.40;2.47;;;17.60;99.70;;;;;;5011513;28;20405;-46
2022/10/07 12:38:22;;;;;;;8.85;2.35;;;17.60;99.90;;;;;;5011477;28;20101;-48
2022/10/07 12:41:03;;;;;;;8.48;3.38;;;17.60;99.90;;;;;;5011747;28;20123;-49
2022/10/07 12:43:46;;;;;;;4.55;2.85;;;17.60;99.90;;;;;;5011658;28;20029;-45
2022/10/07 12:46:17;;;;;;;8.68;2.53;;;17.60;99.90;;;;;;5013497;28;20528;-49
2022/10/07 12:49:00;;;;;;;5.40;1.98;;;17.60;99.90;;;;;;5014383;28;20038;-48
2022/10/07 12:51:31;;;;;;;7.25;2.10;;;17.60;99.90;;;;;;5015719;28;20056;-45
2022/10/07 12:53:58;;;;;;;7.20;2.05;;;17.70;99.90;;;;;;5015598;28;20417;-46
2022/10/07 12:56:28;;;;;;;5.95;2.03;;;17.60;99.90;;;;;;5015350;28;20026;-51
2022/10/07 13:02:10;;;;;;;6.15;2.03;;;17.60;99.90;;;;;;5015437;28;20076;-46
2022/10/07 13:05:04;;;;;;;4.35;1.60;;;17.60;99.90;;;;;;5014299;28;20378;-45
2022/10/07 13:08:06;;;;;;;8.77;1.70;;;17.50;99.90;;;;;;5015615;28;20088;-49
2022/10/07 13:10:47;;;;;;;9.48;2.03;;;17.60;99.90;;;;;;5015428;28;20053;-48
2022/10/07 13:13:23;;;;;;;5.38;2.30;;;17.60;99.90;;;;;;5014986;28;20032;-46
2022/10/07 13:16:01;;;;;;;5.97;1.92;;;17.60;99.90;;;;;;5015165;28;20481;-47
2022/10/07 13:18:44;;;;;;;5.03;1.58;;;17.60;99.90;;;;;;5015163;28;20450;-46